Time;durP1;ratioP1;P1;durP2;ratioP2;P2;SDS_P1;SDS_P2;PMS_P1;PMS_P2;Temp;Humidity;BMP_temperature;BMP_pressure;BME280_temperature;BME280_humidity;BME280_pressure;Samples;Min_cycle;Max_cycle;Signal;HPM_P1;HPM_P2
2022/11/15 00:00:33;;;;;;;2.60;1.50;;;;;;;;;;5079682;28;20177;-88
2022/11/15 00:03:23;;;;;;;1.92;1.40;;;;;;;;;;5079498;28;20044;-88
2022/11/15 00:06:06;;;;;;;4.03;1.55;;;;;;;;;;5079384;28;20047;-88
2022/11/15 00:08:50;;;;;;;1.90;1.40;;;;;;;;;;5079818;28;20117;-88
2022/11/15 00:11:34;;;;;;;3.22;1.25;;;;;;;;;;5079336;28;20043;-87
2022/11/15 00:14:21;;;;;;;2.65;1.50;;;;;;;;;;5077650;28;20047;-88
2022/11/15 00:17:05;;;;;;;3.47;1.58;;;;;;;;;;5079655;28;20071;-88
2022/11/15 00:19:56;;;;;;;1.95;1.45;;;;;;;;;;5079527;28;20070;-88
2022/11/15 00:22:40;;;;;;;2.60;1.33;;;;;;;;;;5078713;28;20075;-87
2022/11/15 00:25:24;;;;;;;2.50;1.35;;;;;;;;;;5078523;28;20067;-88
2022/11/15 00:28:08;;;;;;;2.80;1.65;;;;;;;;;;5078478;28;20508;-88
2022/11/15 00:30:51;;;;;;;;;;;;;;;;;;5079682;28;20047;-88
2022/11/15 00:33:36;;;;;;;2.83;1.40;;;;;;;;;;5079621;28;19966;-88
2022/11/15 00:36:19;;;;;;;;;;;;;;;;;;5079513;28;20217;-89
2022/11/15 00:39:05;;;;;;;2.08;1.50;;;;;;;;;;5079332;28;19918;-88
2022/11/15 00:41:49;;;;;;;2.60;1.60;;;;;;;;;;5079984;28;20067;-88
2022/11/15 00:44:33;;;;;;;2.08;1.50;;;;;;;;;;5079039;28;20096;-88
2022/11/15 00:47:17;;;;;;;3.00;1.60;;;;;;;;;;5079510;28;20566;-88
2022/11/15 00:50:01;;;;;;;2.22;1.67;;;;;;;;;;5079395;28;20054;-88
2022/11/15 00:52:45;;;;;;;2.60;1.77;;;;;;;;;;5078228;28;20094;-88
2022/11/15 00:55:29;;;;;;;2.45;1.52;;;;;;;;;;5078432;28;20127;-88
2022/11/15 00:58:16;;;;;;;2.13;1.50;;;;;;;;;;5078800;28;20425;-88
2022/11/15 01:01:11;;;;;;;1.88;1.38;;;;;;;;;;5079117;28;20055;-88
2022/11/15 01:03:55;;;;;;;2.55;1.35;;;;;;;;;;5078061;28;20086;-86
2022/11/15 01:06:39;;;;;;;2.75;1.60;;;;;;;;;;5078675;28;20101;-88
2022/11/15 01:09:23;;;;;;;2.88;1.50;;;;;;;;;;5078674;28;20477;-88
2022/11/15 01:12:07;;;;;;;3.45;1.65;;;;;;;;;;5078527;28;20040;-88
2022/11/15 01:14:54;;;;;;;2.35;1.60;;;;;;;;;;5079177;28;20059;-87
2022/11/15 01:17:38;;;;;;;3.30;1.60;;;;;;;;;;5082150;28;20428;-88
2022/11/15 01:20:22;;;;;;;2.83;1.70;;;;;;;;;;5082740;28;20046;-88
2022/11/15 01:23:06;;;;;;;2.53;1.52;;;;;;;;;;5083840;28;20110;-88
2022/11/15 01:25:50;;;;;;;2.80;1.90;;;;;;;;;;5082784;28;20062;-88
2022/11/15 01:28:39;;;;;;;2.20;1.50;;;;;;;;;;5083461;28;20070;-88
2022/11/15 01:31:23;;;;;;;2.05;1.40;;;;;;;;;;5083106;28;20066;-88
2022/11/15 01:34:07;;;;;;;4.05;1.60;;;;;;;;;;5081857;28;20078;-87
2022/11/15 01:36:51;;;;;;;2.58;1.60;;;;;;;;;;5083753;28;20051;-86
2022/11/15 01:39:35;;;;;;;1.70;1.30;;;;;;;;;;5083182;28;20055;-88
2022/11/15 01:42:19;;;;;;;2.20;1.50;;;;;;;;;;5082309;28;20048;-88
2022/11/15 01:45:04;;;;;;;2.10;1.50;;;;;;;;;;5080818;28;20086;-88
2022/11/15 01:47:53;;;;;;;2.10;1.48;;;;;;;;;;5081375;28;20523;-88
2022/11/15 01:50:37;;;;;;;2.92;1.50;;;;;;;;;;5082867;28;20054;-88
2022/11/15 01:53:23;;;;;;;2.38;1.40;;;;;;;;;;5081911;28;20050;-87
2022/11/15 01:56:11;;;;;;;2.50;1.40;;;;;;;;;;5082141;28;20417;-88
2022/11/15 01:58:58;;;;;;;3.88;1.70;;;;;;;;;;5082839;28;20158;-87
2022/11/15 02:01:42;;;;;;;2.10;1.50;;;;;;;;;;5082251;28;20047;-88
2022/11/15 02:04:39;;;;;;;2.47;1.30;;;;;;;;;;5082315;28;20400;-88
2022/11/15 02:07:23;;;;;;;1.98;1.33;;;;;;;;;;5081402;28;20050;-88
2022/11/15 02:10:11;;;;;;;2.30;1.30;;;;;;;;;;5082487;28;20051;-88
2022/11/15 02:12:56;;;;;;;1.83;1.23;;;;;;;;;;5082639;28;20058;-88
2022/11/15 02:15:56;;;;;;;1.92;1.30;;;;;;;;;;5080988;28;20071;-87
2022/11/15 02:18:51;;;;;;;1.83;1.30;;;;;;;;;;5080519;28;20097;-88
2022/11/15 02:22:01;;;;;;;2.40;1.30;;;;;;;;;;5081178;28;20544;-88
2022/11/15 02:25:03;;;;;;;2.10;1.40;;;;;;;;;;5080471;28;20079;-88
2022/11/15 02:27:56;;;;;;;2.58;1.80;;;;;;;;;;5081417;28;20055;-88
2022/11/15 02:31:10;;;;;;;2.43;1.40;;;;;;;;;;5081712;28;20110;-88
2022/11/15 02:34:21;;;;;;;3.38;1.35;;;;;;;;;;5081899;28;20043;-88
2022/11/15 02:37:35;;;;;;;2.10;1.42;;;;;;;;;;5081189;28;20123;-87
2022/11/15 02:40:31;;;;;;;3.13;1.60;;;;;;;;;;5081530;28;20052;-88
2022/11/15 02:49:53;;;;;;;3.75;1.40;;;;;;;;;;5082211;28;20455;-88
2022/11/15 02:52:38;;;;;;;2.05;1.30;;;;;;;;;;5081000;28;20588;-88
2022/11/15 02:55:33;;;;;;;2.00;1.40;;;;;;;;;;5080263;28;20070;-88
2022/11/15 02:58:39;;;;;;;2.50;1.30;;;;;;;;;;5081402;28;20054;-88
2022/11/15 03:01:47;;;;;;;2.97;1.45;;;;;;;;;;5079412;28;20062;-87
2022/11/15 03:04:56;;;;;;;2.58;1.48;;;;;;;;;;5079372;28;20151;-88
2022/11/15 03:07:55;;;;;;;2.30;1.30;;;;;;;;;;5078908;28;20079;-88
2022/11/15 03:11:01;;;;;;;3.28;1.50;;;;;;;;;;5080373;28;20094;-88
2022/11/15 03:14:08;;;;;;;2.25;1.60;;;;;;;;;;5079088;28;20550;-88
2022/11/15 03:17:15;;;;;;;2.42;1.50;;;;;;;;;;5080598;28;20097;-88
2022/11/15 03:20:03;;;;;;;2.60;1.70;;;;;;;;;;5081469;28;20069;-91
2022/11/15 03:22:50;;;;;;;5.03;1.80;;;;;;;;;;5079874;28;20066;-88
2022/11/15 03:25:40;;;;;;;2.85;1.80;;;;;;;;;;5080111;28;20070;-88
2022/11/15 03:28:32;;;;;;;1.88;1.50;;;;;;;;;;5080078;28;20055;-88
2022/11/15 03:34:54;;;;;;;1.95;1.60;;;;;;;;;;5079680;28;20107;-87
2022/11/15 03:37:50;;;;;;;2.90;1.63;;;;;;;;;;5079683;28;20052;-88
2022/11/15 03:40:40;;;;;;;2.67;1.50;;;;;;;;;;5080247;28;20086;-88
2022/11/15 03:43:47;;;;;;;2.45;1.50;;;;;;;;;;5078957;28;20059;-88
2022/11/15 03:46:36;;;;;;;3.80;1.50;;;;;;;;;;5079526;28;20530;-88
2022/11/15 03:49:36;;;;;;;2.15;1.70;;;;;;;;;;5079745;28;20053;-88
2022/11/15 03:52:21;;;;;;;3.08;1.60;;;;;;;;;;5080046;28;20105;-87
2022/11/15 03:55:08;;;;;;;2.83;1.80;;;;;;;;;;5078419;28;20055;-88
2022/11/15 03:57:56;;;;;;;2.00;1.60;;;;;;;;;;5079994;28;20047;-86
2022/11/15 04:00:40;;;;;;;2.65;1.60;;;;;;;;;;5079949;28;20055;-89
2022/11/15 04:03:25;;;;;;;2.65;1.70;;;;;;;;;;5078385;28;20052;-89
2022/11/15 04:06:09;;;;;;;2.75;1.70;;;;;;;;;;5079080;28;20067;-89
2022/11/15 04:08:53;;;;;;;2.63;1.60;;;;;;;;;;5080200;28;20095;-89
2022/11/15 04:11:37;;;;;;;2.70;1.80;;;;;;;;;;5079053;28;20063;-89
2022/11/15 04:14:21;;;;;;;2.60;1.80;;;;;;;;;;5079035;28;20063;-89
2022/11/15 04:17:05;;;;;;;3.30;1.55;;;;;;;;;;5080086;28;20070;-89
2022/11/15 04:25:59;;;;;;;2.30;1.67;;;;;;;;;;5079582;28;20074;-89
2022/11/15 04:31:46;;;;;;;2.40;1.40;;;;;;;;;;5079709;28;20048;-88
2022/11/15 04:34:30;;;;;;;2.40;1.60;;;;;;;;;;5079408;28;20066;-89
2022/11/15 04:37:14;;;;;;;;;;;;;;;;;;5080396;28;20052;-86
2022/11/15 04:39:58;;;;;;;6.25;1.60;;;;;;;;;;5078563;28;19935;-90
2022/11/15 04:42:42;;;;;;;3.65;1.60;;;;;;;;;;5080138;28;20043;-89
2022/11/15 04:45:26;;;;;;;2.88;2.13;;;;;;;;;;5080188;28;20052;-88
2022/11/15 04:48:10;;;;;;;2.92;1.83;;;;;;;;;;5080407;28;20090;-89
2022/11/15 04:50:54;;;;;;;2.28;1.70;;;;;;;;;;5082655;28;20051;-89
2022/11/15 04:53:38;;;;;;;2.53;1.70;;;;;;;;;;5083869;28;20698;-89
2022/11/15 04:56:23;;;;;;;3.10;1.50;;;;;;;;;;5082886;28;20055;-89
2022/11/15 04:59:07;;;;;;;;;;;;;;;;;;5084660;28;20086;-87
2022/11/15 05:01:51;;;;;;;2.13;1.70;;;;;;;;;;5084224;28;19924;-89
2022/11/15 05:04:34;;;;;;;3.00;1.35;;;;;;;;;;5082521;28;20128;-88
2022/11/15 05:07:18;;;;;;;;;;;;;;;;;;5084393;28;20094;-86
2022/11/15 05:10:03;;;;;;;2.47;1.45;;;;;;;;;;5083393;28;19962;-89
2022/11/15 05:12:47;;;;;;;3.65;1.50;;;;;;;;;;5083707;28;20119;-89
2022/11/15 05:15:31;;;;;;;2.65;1.60;;;;;;;;;;5082968;28;20082;-89
2022/11/15 05:18:15;;;;;;;3.15;1.60;;;;;;;;;;5083900;28;20059;-89
2022/11/15 05:21:03;;;;;;;;;;;;;;;;;;5084823;28;20126;-87
2022/11/15 05:23:47;;;;;;;3.03;1.50;;;;;;;;;;5084061;28;19919;-89
2022/11/15 05:26:31;;;;;;;1.92;1.40;;;;;;;;;;5082988;28;20086;-89
2022/11/15 05:29:15;;;;;;;2.13;1.63;;;;;;;;;;5083600;28;20062;-89
2022/11/15 05:31:59;;;;;;;3.80;1.48;;;;;;;;;;5082894;28;20547;-89
2022/11/15 05:34:44;;;;;;;2.15;1.40;;;;;;;;;;5081617;28;20059;-90
2022/11/15 05:37:29;;;;;;;1.70;1.40;;;;;;;;;;5083476;28;20459;-89
2022/11/15 05:40:13;;;;;;;1.48;1.17;;;;;;;;;;5083410;28;20044;-89
2022/11/15 05:42:59;;;;;;;2.10;1.60;;;;;;;;;;5083878;28;20124;-89
2022/11/15 05:45:43;;;;;;;1.70;1.30;;;;;;;;;;5084826;28;20051;-89
2022/11/15 05:48:27;;;;;;;1.77;1.30;;;;;;;;;;5084843;28;20136;-88
2022/11/15 05:51:12;;;;;;;2.85;1.70;;;;;;;;;;5081889;28;20090;-89
2022/11/15 05:53:58;;;;;;;4.72;1.67;;;;;;;;;;5083101;28;20044;-87
2022/11/15 05:56:43;;;;;;;4.90;1.67;;;;;;;;;;5082921;28;20060;-89
2022/11/15 05:59:30;;;;;;;2.13;1.50;;;;;;;;;;5082524;28;20102;-90
2022/11/15 06:02:14;;;;;;;1.98;1.40;;;;;;;;;;5081225;28;20043;-89
2022/11/15 06:04:58;;;;;;;1.65;1.30;;;;;;;;;;5080876;28;20127;-89
2022/11/15 06:07:42;;;;;;;1.60;1.25;;;;;;;;;;5082246;28;20071;-88
2022/11/15 06:10:26;;;;;;;1.90;1.52;;;;;;;;;;5082252;28;20063;-88
2022/11/15 06:13:11;;;;;;;2.78;1.63;;;;;;;;;;5078599;28;20065;-87
2022/11/15 06:15:56;;;;;;;2.45;1.50;;;;;;;;;;5077094;28;20051;-88
2022/11/15 06:18:40;;;;;;;2.22;1.55;;;;;;;;;;5078659;28;20474;-88
2022/11/15 06:21:24;;;;;;;2.30;1.55;;;;;;;;;;5080328;28;20051;-88
2022/11/15 06:24:08;;;;;;;2.10;1.45;;;;;;;;;;5078618;28;20097;-89
2022/11/15 06:26:52;;;;;;;4.53;1.80;;;;;;;;;;5080128;28;20051;-87
2022/11/15 06:29:36;;;;;;;2.85;1.80;;;;;;;;;;5080969;28;20051;-89
2022/11/15 06:32:20;;;;;;;3.03;2.22;;;;;;;;;;5081252;28;20089;-89
2022/11/15 06:35:05;;;;;;;3.33;2.15;;;;;;;;;;5080842;28;20638;-89
2022/11/15 06:37:49;;;;;;;3.80;2.40;;;;;;;;;;5081632;28;20081;-89
2022/11/15 06:40:35;;;;;;;3.10;1.90;;;;;;;;;;5082111;28;20047;-89
2022/11/15 06:43:19;;;;;;;1.90;1.48;;;;;;;;;;5080309;28;20048;-89
2022/11/15 06:46:04;;;;;;;2.53;1.75;;;;;;;;;;5080146;28;20051;-89
2022/11/15 06:48:51;;;;;;;1.85;1.50;;;;;;;;;;5082360;28;20474;-89
2022/11/15 06:51:35;;;;;;;3.10;1.50;;;;;;;;;;5082083;28;20051;-89
2022/11/15 06:54:20;;;;;;;2.92;1.20;;;;;;;;;;5081444;28;20104;-89
2022/11/15 06:57:04;;;;;;;2.35;1.50;;;;;;;;;;5079694;28;20044;-87
2022/11/15 06:59:49;;;;;;;2.70;1.40;;;;;;;;;;5083306;28;20405;-88
2022/11/15 07:02:33;;;;;;;2.13;1.40;;;;;;;;;;5079587;28;20046;-88
2022/11/15 07:05:17;;;;;;;2.15;1.48;;;;;;;;;;5080391;28;20078;-87
2022/11/15 07:08:01;;;;;;;1.70;1.30;;;;;;;;;;5080157;28;20433;-88
2022/11/15 07:10:45;;;;;;;1.95;1.50;;;;;;;;;;5081508;28;20083;-88
2022/11/15 07:13:34;;;;;;;2.13;1.40;;;;;;;;;;5080373;28;20985;-88
2022/11/15 07:16:18;;;;;;;1.92;1.27;;;;;;;;;;5080857;28;20051;-87
2022/11/15 07:19:03;;;;;;;2.95;1.88;;;;;;;;;;5082195;28;20063;-88
2022/11/15 07:21:47;;;;;;;8.65;1.42;;;;;;;;;;5083313;28;20047;-88
2022/11/15 07:24:31;;;;;;;2.10;1.50;;;;;;;;;;5085252;28;20482;-87
2022/11/15 07:27:15;;;;;;;;;;;;;;;;;;5079963;28;20121;-85
2022/11/15 07:29:59;;;;;;;2.72;1.88;;;;;;;;;;5076201;28;19966;-88
2022/11/15 07:32:43;;;;;;;2.20;1.60;;;;;;;;;;5078603;28;20040;-88
2022/11/15 07:35:28;;;;;;;3.28;1.90;;;;;;;;;;5076857;28;20182;-87
2022/11/15 07:38:12;;;;;;;5.28;2.40;;;;;;;;;;5076826;28;20051;-87
2022/11/15 07:40:57;;;;;;;3.67;2.10;;;;;;;;;;5076205;28;20132;-88
2022/11/15 07:43:41;;;;;;;3.80;1.40;;;;;;;;;;5078184;28;20047;-88
2022/11/15 07:46:25;;;;;;;2.03;1.42;;;;;;;;;;5078378;28;20408;-87
2022/11/15 07:49:09;;;;;;;2.42;1.40;;;;;;;;;;5077659;28;20129;-87
2022/11/15 07:51:53;;;;;;;2.85;1.40;;;;;;;;;;5077173;28;20055;-89
2022/11/15 07:54:38;;;;;;;2.92;1.38;;;;;;;;;;5080174;28;20074;-89
2022/11/15 07:57:22;;;;;;;2.50;1.50;;;;;;;;;;5079437;28;20047;-88
2022/11/15 08:00:06;;;;;;;;;;;;;;;;;;5080754;28;20071;-85
2022/11/15 08:02:50;;;;;;;1.90;1.30;;;;;;;;;;5078964;28;19918;-90
2022/11/15 08:05:35;;;;;;;1.80;1.40;;;;;;;;;;5059268;28;20393;-89
2022/11/15 08:08:19;;;;;;;2.97;1.50;;;;;;;;;;5059161;28;20047;-88
2022/11/15 08:11:03;;;;;;;3.90;2.50;;;;;;;;;;5057804;28;20130;-86
2022/11/15 08:13:47;;;;;;;2.75;1.90;;;;;;;;;;5031388;28;20465;-88
2022/11/15 08:16:32;;;;;;;3.08;1.90;;;;;;;;;;5058107;28;20060;-89
2022/11/15 08:19:16;;;;;;;2.72;1.40;;;;;;;;;;5058966;28;20047;-89
2022/11/15 08:22:00;;;;;;;5.05;1.92;;;;;;;;;;5056992;28;20457;-89
2022/11/15 08:24:44;;;;;;;2.00;1.40;;;;;;;;;;5057814;28;20153;-89
2022/11/15 08:27:29;;;;;;;2.10;1.50;;;;;;;;;;5059480;28;20488;-86
2022/11/15 08:30:13;;;;;;;2.55;1.60;;;;;;;;;;5057987;28;20044;-88
2022/11/15 08:32:58;;;;;;;4.53;1.50;;;;;;;;;;5057900;28;20469;-90
2022/11/15 08:35:44;;;;;;;2.10;1.30;;;;;;;;;;5060131;28;20076;-89
2022/11/15 08:38:30;;;;;;;2.13;1.30;;;;;;;;;;5068551;28;20106;-89
2022/11/15 08:41:23;;;;;;;3.72;1.30;;;;;;;;;;5075901;28;20044;-90
2022/11/15 08:44:07;;;;;;;1.70;1.23;;;;;;;;;;5072558;28;20481;-89
2022/11/15 08:46:51;;;;;;;;;;;;;;;;;;5075744;28;20043;-87
2022/11/15 08:49:35;;;;;;;2.00;1.30;;;;;;;;;;5073854;28;19958;-88
2022/11/15 08:52:25;;;;;;;2.17;1.17;;;;;;;;;;5078719;28;20082;-89
2022/11/15 08:55:09;;;;;;;1.10;1.00;;;;;;;;;;5078276;28;20055;-87
2022/11/15 08:57:53;;;;;;;;;;;;;;;;;;5080970;28;20541;-87
2022/11/15 09:00:37;;;;;;;1.73;1.10;;;;;;;;;;5079073;28;19958;-90
2022/11/15 09:03:21;;;;;;;1.85;1.00;;;;;;;;;;5078287;28;20043;-89
2022/11/15 09:06:05;;;;;;;2.05;1.00;;;;;;;;;;5078139;28;20124;-89
2022/11/15 09:08:49;;;;;;;1.40;1.15;;;;;;;;;;5078132;28;20070;-89
2022/11/15 09:11:33;;;;;;;1.77;1.10;;;;;;;;;;5077461;28;20478;-89
2022/11/15 09:14:16;;;;;;;;;;;;;;;;;;5075534;28;20055;-87
2022/11/15 09:17:01;;;;;;;3.42;1.13;;;;;;;;;;5077059;28;19958;-88
2022/11/15 09:19:45;;;;;;;5.28;1.17;;;;;;;;;;5076205;28;20043;-89
2022/11/15 09:22:29;;;;;;;1.65;1.13;;;;;;;;;;5074313;28;20177;-89
2022/11/15 09:25:13;;;;;;;;;;;;;;;;;;5075800;28;20052;-88
2022/11/15 09:27:57;;;;;;;2.88;1.20;;;;;;;;;;5076192;28;19919;-89
2022/11/15 09:30:41;;;;;;;4.82;2.97;;;;;;;;;;5077595;28;20113;-88
2022/11/15 09:33:25;;;;;;;7.05;4.47;;;;;;;;;;5078474;28;20117;-89
2022/11/15 09:36:10;;;;;;;2.40;1.73;;;;;;;;;;5080838;28;20051;-89
2022/11/15 09:38:54;;;;;;;1.90;1.40;;;;;;;;;;5082652;28;20516;-89
2022/11/15 09:42:10;;;;;;;1.40;1.20;;;;;;;;;;5081772;28;20090;-88
2022/11/15 09:45:34;;;;;;;3.78;1.30;;;;;;;;;;5083908;28;20508;-89
2022/11/15 09:48:54;;;;;;;1.10;1.00;;;;;;;;;;5082640;28;20055;-89
2022/11/15 09:51:54;;;;;;;2.90;1.20;;;;;;;;;;5025748;28;20075;-88
2022/11/15 09:54:28;;;;;;;1.20;1.10;;;;;;;;;;5082273;28;20033;-88
2022/11/15 09:56:56;;;;;;;1.40;1.00;;;;;;;;;;5084385;28;20047;-87
2022/11/15 09:59:59;;;;;;;3.65;1.30;;;;;;;;;;5084391;28;20048;-88
2022/11/15 10:03:03;;;;;;;1.80;1.13;;;;;;;;;;5083584;28;20044;-88
2022/11/15 10:05:28;;;;;;;1.67;1.10;;;;;;;;;;5085038;28;20105;-84
2022/11/15 10:08:19;;;;;;;1.30;1.10;;;;;;;;;;5081893;28;20068;-87
2022/11/15 10:10:49;;;;;;;2.70;1.10;;;;;;;;;;5085373;28;20037;-88
2022/11/15 10:13:30;;;;;;;2.03;1.20;;;;;;;;;;5084633;28;20507;-86
2022/11/15 10:16:12;;;;;;;3.20;1.20;;;;;;;;;;5084712;28;20043;-88
2022/11/15 10:19:19;;;;;;;1.85;1.10;;;;;;;;;;5083524;28;20052;-88
2022/11/15 10:33:39;;;;;;;1.85;1.20;;;;;;;;;;5372657;22;20052;-89
2022/11/15 10:43:47;;;;;;;1.55;1.10;;;;;;;;;;5003572;28;20081;-88
2022/11/15 10:46:29;;;;;;;1.25;1.10;;;;;;;;;;4986626;28;20034;-89
2022/11/15 10:49:52;;;;;;;1.27;1.02;;;;;;;;;;5004702;28;20054;-88
2022/11/15 10:52:35;;;;;;;1.58;1.08;;;;;;;;;;4955466;28;20057;-88
2022/11/15 10:55:22;;;;;;;1.40;1.13;;;;;;;;;;4964912;28;20038;-89
2022/11/15 10:57:57;;;;;;;3.13;0.90;;;;;;;;;;4964475;28;20077;-89
2022/11/15 11:00:28;;;;;;;1.55;1.10;;;;;;;;;;4965704;28;20038;-88
2022/11/15 11:02:56;;;;;;;0.93;0.90;;;;;;;;;;4985749;28;20042;-89
2022/11/15 11:05:29;;;;;;;1.13;1.00;;;;;;;;;;4984493;28;20088;-89
2022/11/15 11:07:58;;;;;;;1.75;1.20;;;;;;;;;;4985807;28;20047;-89
2022/11/15 11:10:24;;;;;;;2.58;1.10;;;;;;;;;;4985752;28;20507;-89
2022/11/15 11:12:50;;;;;;;1.98;1.40;;;;;;;;;;4985047;28;20046;-89
2022/11/15 11:15:17;;;;;;;2.22;1.38;;;;;;;;;;4982317;28;20098;-89
2022/11/15 11:17:54;;;;;;;2.33;1.40;;;;;;;;;;4985063;28;20472;-89
2022/11/15 11:20:44;;;;;;;1.35;1.10;;;;;;;;;;4951870;28;20039;-89
2022/11/15 11:23:29;;;;;;;1.25;1.00;;;;;;;;;;5020304;23;20050;-89
2022/11/15 11:26:39;;;;;;;4.25;1.15;;;;;;;;;;4995467;28;20085;-87
2022/11/15 11:29:26;;;;;;;1.88;1.00;;;;;;;;;;4992846;28;20046;-88
2022/11/15 11:32:18;;;;;;;1.20;1.00;;;;;;;;;;5012173;28;20034;-86
2022/11/15 11:35:19;;;;;;;1.88;1.00;;;;;;;;;;5015196;28;20084;-87
2022/11/15 11:38:03;;;;;;;2.13;1.10;;;;;;;;;;5013075;28;20030;-86
2022/11/15 11:40:40;;;;;;;1.67;1.10;;;;;;;;;;5013098;28;20051;-86
2022/11/15 11:43:45;;;;;;;1.77;1.20;;;;;;;;;;5012955;28;20479;-88
2022/11/15 11:46:16;;;;;;;1.40;1.08;;;;;;;;;;5011375;28;20132;-87
2022/11/15 11:48:51;;;;;;;1.48;1.13;;;;;;;;;;5012012;28;20064;-88
2022/11/15 11:51:25;;;;;;;1.98;1.20;;;;;;;;;;5011754;28;20038;-88
2022/11/15 11:54:05;;;;;;;1.80;1.30;;;;;;;;;;5012687;28;20044;-87
2022/11/15 11:56:37;;;;;;;1.55;1.20;;;;;;;;;;5012910;28;20041;-86
2022/11/15 11:59:25;;;;;;;2.05;1.10;;;;;;;;;;5010397;28;20052;-87
2022/11/15 12:01:51;;;;;;;1.27;1.10;;;;;;;;;;5011517;28;20037;-86
2022/11/15 12:04:37;;;;;;;3.72;1.80;;;;;;;;;;5011083;28;20439;-87
2022/11/15 12:07:19;;;;;;;2.60;1.50;;;;;;;;;;5011504;28;20038;-86
2022/11/15 12:09:48;;;;;;;1.83;1.10;;;;;;;;;;5012875;28;20117;-88
2022/11/15 12:12:39;;;;;;;2.03;1.40;;;;;;;;;;4994947;28;20022;-87
2022/11/15 12:15:15;;;;;;;2.13;1.20;;;;;;;;;;5010341;28;20144;-87
2022/11/15 12:17:41;;;;;;;1.40;1.10;;;;;;;;;;5011846;28;20041;-87
2022/11/15 12:20:17;;;;;;;5.32;2.05;;;;;;;;;;5011735;28;20076;-85
2022/11/15 12:23:00;;;;;;;3.35;2.00;;;;;;;;;;5012230;28;20069;-88
2022/11/15 12:25:46;;;;;;;1.83;1.10;;;;;;;;;;5011895;28;20049;-88
2022/11/15 12:28:27;;;;;;;3.55;1.83;;;;;;;;;;5011324;28;20557;-85
2022/11/15 12:31:16;;;;;;;2.95;2.15;;;;;;;;;;5011473;28;20041;-86
2022/11/15 12:33:44;;;;;;;12.23;5.32;;;;;;;;;;5012252;28;20383;-87
2022/11/15 12:36:29;;;;;;;11.13;4.00;;;;;;;;;;5011584;28;20063;-86
2022/11/15 12:39:09;;;;;;;8.98;3.63;;;;;;;;;;5012287;28;20029;-87
2022/11/15 12:41:37;;;;;;;5.22;2.47;;;;;;;;;;5012465;28;20168;-87
2022/11/15 12:44:04;;;;;;;3.10;1.50;;;;;;;;;;5011549;28;20376;-87
2022/11/15 12:46:29;;;;;;;4.07;1.58;;;;;;;;;;5021119;28;20452;-89
2022/11/15 12:48:54;;;;;;;2.10;1.40;;;;;;;;;;5013382;28;20069;-88
2022/11/15 12:51:41;;;;;;;2.85;1.50;;;;;;;;;;5012395;28;20454;-88
2022/11/15 12:54:22;;;;;;;3.85;1.60;;;;;;;;;;5010523;28;20041;-89
2022/11/15 12:57:03;;;;;;;2.20;1.60;;;;;;;;;;5013324;28;20046;-88
2022/11/15 12:59:58;;;;;;;3.13;1.60;;;;;;;;;;4994644;28;20095;-87
2022/11/15 13:02:33;;;;;;;3.95;1.80;;;;;;;;;;5011155;28;20034;-86
2022/11/15 13:05:20;;;;;;;5.28;1.50;;;;;;;;;;5010860;28;20037;-87
2022/11/15 13:07:48;;;;;;;2.42;1.70;;;;;;;;;;5011850;28;20041;-87
2022/11/15 13:10:13;;;;;;;3.38;1.70;;;;;;;;;;5014492;28;20033;-88
2022/11/15 13:12:45;;;;;;;2.65;1.75;;;;;;;;;;5017704;28;20045;-87
2022/11/15 13:15:14;;;;;;;2.38;1.60;;;;;;;;;;4997632;28;20034;-88
2022/11/15 13:17:43;;;;;;;2.67;2.10;;;;;;;;;;5017287;28;20049;-88
2022/11/15 13:20:14;;;;;;;6.40;2.08;;;;;;;;;;5015701;28;20044;-88
2022/11/15 13:22:51;;;;;;;3.88;1.90;;;;;;;;;;5014412;28;20045;-86
2022/11/15 13:25:35;;;;;;;2.28;1.90;;;;;;;;;;4997358;28;20042;-86
2022/11/15 13:28:01;;;;;;;;;;;;;;;;;;5016065;28;20042;-88
2022/11/15 13:30:30;;;;;;;3.70;2.00;;;;;;;;;;5014602;28;19993;-87
2022/11/15 13:33:00;;;;;;;5.18;2.20;;;;;;;;;;4997746;28;20076;-87
2022/11/15 13:35:28;;;;;;;6.22;2.40;;;;;;;;;;5015687;28;20061;-87
2022/11/15 13:37:55;;;;;;;3.22;2.10;;;;;;;;;;5014225;28;20048;-87
2022/11/15 13:40:27;;;;;;;3.88;2.25;;;;;;;;;;5015367;28;20038;-88
2022/11/15 13:42:53;;;;;;;3.30;2.28;;;;;;;;;;4997959;28;20033;-88
2022/11/15 13:45:19;;;;;;;3.03;2.00;;;;;;;;;;5014897;28;20036;-86
2022/11/15 13:47:51;;;;;;;3.63;2.17;;;;;;;;;;5015404;28;20115;-87
2022/11/15 13:50:17;;;;;;;2.67;1.88;;;;;;;;;;5017355;28;20034;-87
2022/11/15 13:52:45;;;;;;;4.78;2.00;;;;;;;;;;5016699;28;20036;-87
2022/11/15 13:55:18;;;;;;;3.88;2.00;;;;;;;;;;4997867;28;20038;-88
2022/11/15 13:57:57;;;;;;;3.40;1.95;;;;;;;;;;5026978;28;20042;-87
2022/11/15 14:00:27;;;;;;;2.47;1.77;;;;;;;;;;5016490;28;20026;-87
2022/11/15 14:02:55;;;;;;;2.25;1.70;;;;;;;;;;5014826;28;20034;-86
2022/11/15 14:05:23;;;;;;;2.10;1.52;;;;;;;;;;5015539;28;20038;-88
2022/11/15 14:08:03;;;;;;;2.85;1.80;;;;;;;;;;5016382;28;20376;-87
2022/11/15 14:10:34;;;;;;;15.90;7.97;;;;;;;;;;5014770;28;20056;-87
2022/11/15 14:13:04;;;;;;;14.68;6.57;;;;;;;;;;5014430;28;20041;-88
2022/11/15 14:15:38;;;;;;;10.27;4.43;;;;;;;;;;5030023;28;20042;-89
2022/11/15 14:18:05;;;;;;;6.15;3.03;;;;;;;;;;5020771;28;20038;-86
2022/11/15 14:20:37;;;;;;;7.63;2.40;;;;;;;;;;5014923;28;20113;-87
2022/11/15 14:23:26;;;;;;;3.33;1.95;;;;;;;;;;5016188;28;20446;-86
2022/11/15 14:25:58;;;;;;;3.90;1.88;;;;;;;;;;5018756;28;20045;-86
2022/11/15 14:28:24;;;;;;;3.33;1.80;;;;;;;;;;5015242;28;20038;-87
2022/11/15 14:30:51;;;;;;;2.85;1.77;;;;;;;;;;5015275;28;20403;-89
2022/11/15 14:33:19;;;;;;;2.72;1.58;;;;;;;;;;5014148;28;20457;-85
2022/11/15 14:35:44;;;;;;;4.15;1.70;;;;;;;;;;5014630;28;20042;-88
2022/11/15 14:38:10;;;;;;;2.10;1.70;;;;;;;;;;5013659;28;20030;-88
2022/11/15 14:40:35;;;;;;;2.88;2.00;;;;;;;;;;5014804;28;20050;-87
2022/11/15 14:43:01;;;;;;;6.22;2.53;;;;;;;;;;5015182;28;20037;-89
2022/11/15 14:45:27;;;;;;;4.65;3.00;;;;;;;;;;5014708;28;20041;-87
2022/11/15 14:47:53;;;;;;;6.38;2.70;;;;;;;;;;5015755;28;20171;-87
2022/11/15 14:50:20;;;;;;;4.20;2.80;;;;;;;;;;4998314;28;20042;-87
2022/11/15 14:52:46;;;;;;;6.03;2.90;;;;;;;;;;5014766;28;20042;-89
2022/11/15 14:55:23;;;;;;;3.95;2.42;;;;;;;;;;4997542;28;20046;-88
2022/11/15 14:57:48;;;;;;;3.97;2.42;;;;;;;;;;5014577;28;20471;-87
2022/11/15 15:00:15;;;;;;;5.70;2.50;;;;;;;;;;5016807;28;20529;-89
2022/11/15 15:02:42;;;;;;;3.63;2.30;;;;;;;;;;5016119;28;20053;-87
2022/11/15 15:05:17;;;;;;;5.40;2.22;;;;;;;;;;5015555;28;20467;-87
2022/11/15 15:07:42;;;;;;;3.20;2.15;;;;;;;;;;5025803;28;20065;-88
2022/11/15 15:10:08;;;;;;;3.20;2.17;;;;;;;;;;5016059;28;20044;-89
2022/11/15 15:12:34;;;;;;;6.10;2.20;;;;;;;;;;5016778;28;20038;-88
2022/11/15 15:15:00;;;;;;;3.25;2.00;;;;;;;;;;5014384;28;20026;-88
2022/11/15 15:17:25;;;;;;;3.42;2.10;;;;;;;;;;5028519;28;20053;-89
2022/11/15 15:19:51;;;;;;;5.40;1.90;;;;;;;;;;5026352;28;20042;-88
2022/11/15 15:22:18;;;;;;;2.75;1.67;;;;;;;;;;4999329;28;20036;-88
2022/11/15 15:24:45;;;;;;;2.40;1.70;;;;;;;;;;5015357;28;20042;-88
2022/11/15 15:27:11;;;;;;;3.53;1.70;;;;;;;;;;5014954;28;20542;-87
2022/11/15 15:29:37;;;;;;;2.10;1.58;;;;;;;;;;5015173;28;20063;-89
2022/11/15 15:32:03;;;;;;;2.13;1.40;;;;;;;;;;5015508;28;20033;-85
2022/11/15 15:34:28;;;;;;;4.00;2.00;;;;;;;;;;5014608;28;20069;-86
2022/11/15 15:37:26;;;;;;;4.07;1.80;;;;;;;;;;5014964;28;20042;-86
2022/11/15 15:39:56;;;;;;;5.75;1.63;;;;;;;;;;4982769;28;20042;-84
2022/11/15 15:42:22;;;;;;;2.75;1.88;;;;;;;;;;5014862;28;20037;-86
2022/11/15 15:44:49;;;;;;;2.78;1.85;;;;;;;;;;5007878;28;20120;-86
2022/11/15 15:47:21;;;;;;;2.30;1.80;;;;;;;;;;5003964;28;20034;-85
2022/11/15 15:49:48;;;;;;;3.38;1.83;;;;;;;;;;5006163;28;20035;-88
2022/11/15 15:52:13;;;;;;;4.40;2.08;;;;;;;;;;5004066;28;20063;-85
2022/11/15 15:54:40;;;;;;;2.95;1.90;;;;;;;;;;5003951;28;20045;-85
2022/11/15 15:57:06;;;;;;;2.78;1.70;;;;;;;;;;5003588;28;20045;-86
2022/11/15 15:59:32;;;;;;;2.65;1.63;;;;;;;;;;5003518;28;20502;-86
2022/11/15 16:01:57;;;;;;;3.85;1.70;;;;;;;;;;5004625;28;20034;-84
2022/11/15 16:04:23;;;;;;;2.60;1.85;;;;;;;;;;5002298;28;20073;-88
2022/11/15 16:06:50;;;;;;;4.63;1.80;;;;;;;;;;5006066;28;20121;-87
2022/11/15 16:09:18;;;;;;;3.97;1.90;;;;;;;;;;5005265;28;20106;-86
2022/11/15 16:11:45;;;;;;;3.83;1.90;;;;;;;;;;4998421;28;20564;-86
2022/11/15 16:14:10;;;;;;;3.45;2.08;;;;;;;;;;4996997;28;20102;-88
2022/11/15 16:16:36;;;;;;;3.90;2.20;;;;;;;;;;4999588;28;20458;-87
2022/11/15 16:19:03;;;;;;;3.10;2.15;;;;;;;;;;5005548;28;20385;-86
2022/11/15 16:21:29;;;;;;;3.70;2.17;;;;;;;;;;4993084;28;20048;-86
2022/11/15 16:23:54;;;;;;;4.20;2.25;;;;;;;;;;4995050;28;20065;-87
2022/11/15 16:26:23;;;;;;;4.43;2.50;;;;;;;;;;4993113;28;20034;-87
2022/11/15 16:28:49;;;;;;;4.13;2.40;;;;;;;;;;4993766;28;20482;-86
2022/11/15 16:31:16;;;;;;;3.92;2.10;;;;;;;;;;4993891;28;20077;-85
2022/11/15 16:33:42;;;;;;;4.53;2.30;;;;;;;;;;4992908;28;20034;-86
2022/11/15 16:36:26;;;;;;;3.92;2.70;;;;;;;;;;4976659;28;20466;-86
2022/11/15 16:38:52;;;;;;;3.67;2.40;;;;;;;;;;4994781;28;20061;-86
2022/11/15 16:41:18;;;;;;;4.57;2.15;;;;;;;;;;4994801;28;20514;-86
2022/11/15 16:43:47;;;;;;;4.18;2.60;;;;;;;;;;4992901;28;20030;-86
2022/11/15 16:46:25;;;;;;;5.35;2.60;;;;;;;;;;4993878;28;20045;-86
2022/11/15 16:48:53;;;;;;;4.72;2.38;;;;;;;;;;4994342;28;20125;-85